createdAt,value
2023-01-13T00:00:38.246Z,11.70
2023-01-13T00:03:08.253Z,11.80
2023-01-13T00:05:37.658Z,11.80
2023-01-13T00:08:06.958Z,11.80
2023-01-13T00:10:36.697Z,11.70
2023-01-13T00:13:06.398Z,11.70
2023-01-13T00:15:35.119Z,11.70
2023-01-13T00:18:03.742Z,11.70
2023-01-13T00:20:33.737Z,11.70
2023-01-13T00:23:02.307Z,11.70
2023-01-13T00:25:30.875Z,11.60
2023-01-13T00:27:59.417Z,11.60
2023-01-13T00:30:28.006Z,11.50
2023-01-13T00:32:56.585Z,11.60
2023-01-13T00:35:25.043Z,11.60
2023-01-13T00:37:54.907Z,11.60
2023-01-13T00:40:23.439Z,11.60
2023-01-13T00:43:17.958Z,11.60
2023-01-13T00:45:46.546Z,11.50
2023-01-13T00:48:15.136Z,11.50
2023-01-13T00:50:43.975Z,11.50
2023-01-13T00:53:14.866Z,11.50
2023-01-13T00:55:43.463Z,11.60
2023-01-13T00:58:11.999Z,11.60
2023-01-13T01:00:40.647Z,11.60
2023-01-13T01:03:12.204Z,11.60
2023-01-13T01:05:41.043Z,11.60
2023-01-13T01:08:09.576Z,11.50
2023-01-13T01:10:39.526Z,11.60
2023-01-13T01:13:08.153Z,11.50
2023-01-13T01:15:40.593Z,11.60
2023-01-13T01:18:09.218Z,11.40
2023-01-13T01:20:38.363Z,11.40
2023-01-13T01:23:06.977Z,11.40
2023-01-13T01:25:35.644Z,11.30
2023-01-13T01:28:05.566Z,11.40
2023-01-13T01:30:34.274Z,11.50
2023-01-13T01:33:05.175Z,11.50
2023-01-13T01:35:33.674Z,11.40
2023-01-13T01:38:02.210Z,11.30
2023-01-13T01:40:30.714Z,11.10
2023-01-13T01:43:16.851Z,11.00
2023-01-13T01:45:46.742Z,10.80
2023-01-13T01:48:15.468Z,10.70
2023-01-13T01:50:43.966Z,10.60
2023-01-13T01:53:16.964Z,10.50
2023-01-13T01:55:45.956Z,10.40
2023-01-13T01:58:18.185Z,10.40
2023-01-13T02:00:48.434Z,10.40
2023-01-13T02:03:18.237Z,10.40
2023-01-13T02:05:46.804Z,10.40
2023-01-13T02:08:15.986Z,10.40
2023-01-13T02:10:49.891Z,10.40
2023-01-13T02:13:17.511Z,10.40
2023-01-13T02:15:55.949Z,10.40
2023-01-13T02:18:39.311Z,10.30
2023-01-13T02:21:40.516Z,10.30
2023-01-13T02:24:50.474Z,10.20
2023-01-13T02:27:45.902Z,10.20
2023-01-13T02:30:42.099Z,10.10
2023-01-13T02:33:20.720Z,10.10
2023-01-13T02:35:56.273Z,10.00
2023-01-13T02:38:29.879Z,10.00
2023-01-13T02:41:21.925Z,10.00
2023-01-13T02:44:06.768Z,10.00
2023-01-13T02:46:44.375Z,10.00
2023-01-13T02:49:20.137Z,10.00
2023-01-13T02:51:53.294Z,10.00
2023-01-13T02:54:26.631Z,9.90
2023-01-13T02:56:56.926Z,9.90
2023-01-13T02:59:27.812Z,9.90
2023-01-13T03:02:00.216Z,9.80
2023-01-13T03:04:48.289Z,9.90
2023-01-13T03:07:38.220Z,9.80
2023-01-13T03:10:12.669Z,9.80
2023-01-13T03:12:47.840Z,9.80
2023-01-13T03:15:23.717Z,9.80
2023-01-13T03:18:02.931Z,9.90
2023-01-13T03:20:37.038Z,9.80
2023-01-13T03:23:14.394Z,9.70
2023-01-13T03:25:52.843Z,9.70
2023-01-13T03:28:26.663Z,9.70
2023-01-13T03:31:00.883Z,9.70
2023-01-13T03:33:36.287Z,9.70
2023-01-13T03:36:09.967Z,9.70
2023-01-13T03:38:42.710Z,9.70
2023-01-13T03:41:18.150Z,9.60
2023-01-13T03:44:08.821Z,9.60
2023-01-13T03:46:43.568Z,9.60
2023-01-13T03:49:17.809Z,9.60
2023-01-13T03:51:51.030Z,9.60
2023-01-13T03:54:23.330Z,9.60
2023-01-13T03:56:56.955Z,9.60
2023-01-13T03:59:30.534Z,9.70
2023-01-13T04:02:04.770Z,9.70
2023-01-13T04:04:38.063Z,9.70
2023-01-13T04:07:15.241Z,9.70
2023-01-13T04:09:51.115Z,9.60
2023-01-13T04:12:26.631Z,9.60
2023-01-13T04:14:56.614Z,9.60
2023-01-13T04:17:25.167Z,9.50
2023-01-13T04:19:55.119Z,9.50
2023-01-13T04:22:23.664Z,9.50
2023-01-13T04:24:52.336Z,9.50
2023-01-13T04:27:20.970Z,9.50
2023-01-13T04:29:49.548Z,9.40
2023-01-13T04:32:18.087Z,9.40
2023-01-13T04:34:46.627Z,9.30
2023-01-13T04:37:16.726Z,9.20
2023-01-13T04:39:46.534Z,9.30
2023-01-13T04:42:15.165Z,9.30
2023-01-13T04:44:43.746Z,9.20
2023-01-13T04:47:12.333Z,9.20
2023-01-13T04:49:40.898Z,9.30
2023-01-13T04:52:09.507Z,9.20
2023-01-13T04:54:39.366Z,9.20
2023-01-13T04:57:07.926Z,9.20
2023-01-13T04:59:36.515Z,9.30
2023-01-13T05:02:05.072Z,9.20
2023-01-13T05:04:33.845Z,9.30
2023-01-13T05:07:02.631Z,9.20
2023-01-13T05:09:31.231Z,9.20
2023-01-13T05:12:18.495Z,9.10
2023-01-13T05:15:09.930Z,9.10
2023-01-13T05:17:38.766Z,9.00
2023-01-13T05:20:08.454Z,9.10
2023-01-13T05:22:54.637Z,8.90
2023-01-13T05:25:25.151Z,8.80
2023-01-13T05:27:56.861Z,8.80
2023-01-13T05:30:28.222Z,8.80
2023-01-13T05:32:57.231Z,8.80
2023-01-13T05:35:26.253Z,8.80
2023-01-13T05:37:55.956Z,8.80
2023-01-13T05:40:42.189Z,8.80
2023-01-13T05:43:24.573Z,8.80
2023-01-13T05:45:57.385Z,8.70
2023-01-13T05:48:27.616Z,8.70
2023-01-13T05:50:56.730Z,8.60
2023-01-13T05:53:25.760Z,8.60
2023-01-13T05:55:54.537Z,8.60
2023-01-13T05:58:26.655Z,8.60
2023-01-13T06:01:01.187Z,8.60
2023-01-13T06:03:29.914Z,8.60
2023-01-13T06:06:01.600Z,8.70
2023-01-13T06:08:30.678Z,8.70
2023-01-13T06:10:59.331Z,8.70
2023-01-13T06:13:29.555Z,8.60
2023-01-13T06:15:59.007Z,8.60
2023-01-13T06:18:29.018Z,8.60
2023-01-13T06:20:57.835Z,8.60
2023-01-13T06:23:26.521Z,8.70
2023-01-13T06:26:03.054Z,8.60
2023-01-13T06:28:33.249Z,8.70
2023-01-13T06:31:05.785Z,8.70
2023-01-13T06:33:37.013Z,8.60
2023-01-13T06:36:11.457Z,8.60
2023-01-13T06:38:43.766Z,8.60
2023-01-13T06:41:12.412Z,8.50
2023-01-13T06:43:41.442Z,8.50
2023-01-13T06:46:10.080Z,8.50
2023-01-13T06:48:38.652Z,8.50
2023-01-13T06:51:07.452Z,8.60
2023-01-13T06:53:36.017Z,8.60
2023-01-13T06:56:04.662Z,8.60
2023-01-13T06:58:33.189Z,8.60
2023-01-13T07:01:03.515Z,8.60
2023-01-13T07:03:32.157Z,8.70
2023-01-13T07:06:02.176Z,8.70
2023-01-13T07:08:30.798Z,8.70
2023-01-13T07:10:59.449Z,8.80
2023-01-13T07:13:45.380Z,8.70
2023-01-13T07:16:15.589Z,8.80
2023-01-13T07:18:44.202Z,8.80
2023-01-13T07:21:18.733Z,8.80
2023-01-13T07:23:48.620Z,8.90
2023-01-13T07:26:17.709Z,8.90
2023-01-13T07:28:46.393Z,8.90
2023-01-13T07:31:18.062Z,8.80
2023-01-13T07:33:46.683Z,8.80
2023-01-13T07:36:16.314Z,8.70
2023-01-13T07:38:45.313Z,8.70
2023-01-13T07:41:32.095Z,8.70
2023-01-13T07:44:04.736Z,8.70
2023-01-13T07:46:35.128Z,8.70
2023-01-13T07:49:04.093Z,8.70
2023-01-13T07:51:32.972Z,8.80
2023-01-13T07:54:01.728Z,8.90
2023-01-13T07:56:30.372Z,8.90
2023-01-13T07:59:01.068Z,9.00
2023-01-13T08:01:31.843Z,9.00
2023-01-13T08:04:01.934Z,8.90
2023-01-13T08:06:30.628Z,8.80
2023-01-13T08:09:00.094Z,8.70
2023-01-13T08:11:28.699Z,8.60
2023-01-13T08:13:58.172Z,8.50
2023-01-13T08:16:27.080Z,8.40
2023-01-13T08:18:55.667Z,8.30
2023-01-13T08:21:25.586Z,8.30
2023-01-13T08:23:54.248Z,8.20
2023-01-13T08:26:23.041Z,8.10
2023-01-13T08:28:51.664Z,8.10
2023-01-13T08:31:22.359Z,8.00
2023-01-13T08:33:50.957Z,8.00
2023-01-13T08:36:20.323Z,8.00
2023-01-13T08:38:50.539Z,8.00
2023-01-13T08:41:39.629Z,8.00
2023-01-13T08:44:09.319Z,8.00
2023-01-13T08:46:38.185Z,8.10
2023-01-13T08:49:07.042Z,8.10
2023-01-13T08:51:35.938Z,8.20
2023-01-13T08:54:06.060Z,8.30
2023-01-13T08:56:35.651Z,8.30
2023-01-13T08:59:04.637Z,8.40
2023-01-13T09:01:34.004Z,8.40
2023-01-13T09:04:02.879Z,8.50
2023-01-13T09:06:31.511Z,8.60
2023-01-13T09:09:02.393Z,8.70
2023-01-13T09:11:53.711Z,8.80
2023-01-13T09:14:24.577Z,8.80
2023-01-13T09:16:53.160Z,9.00
2023-01-13T09:19:21.749Z,9.00
2023-01-13T09:21:50.325Z,9.10
2023-01-13T09:24:19.103Z,9.20
2023-01-13T09:26:49.247Z,9.30
2023-01-13T09:29:18.553Z,9.30
2023-01-13T09:31:47.282Z,9.30
2023-01-13T09:34:35.758Z,9.30
2023-01-13T09:37:04.885Z,9.40
2023-01-13T09:39:33.807Z,9.40
2023-01-13T09:42:32.709Z,9.40
2023-01-13T09:45:05.995Z,9.50
2023-01-13T09:47:41.012Z,9.50
2023-01-13T09:50:22.439Z,9.60
2023-01-13T09:52:51.192Z,9.60
2023-01-13T09:55:23.962Z,9.70
2023-01-13T09:57:54.107Z,9.80
2023-01-13T10:00:24.955Z,9.80
2023-01-13T10:03:13.556Z,9.80
2023-01-13T10:05:45.394Z,9.80
2023-01-13T10:08:18.296Z,9.90
2023-01-13T10:10:49.575Z,9.90
2023-01-13T10:13:23.047Z,9.90
2023-01-13T10:16:06.650Z,9.90
2023-01-13T10:18:44.674Z,10.00
2023-01-13T10:21:43.768Z,10.00
2023-01-13T10:24:21.264Z,10.00
2023-01-13T10:26:58.417Z,10.00
2023-01-13T10:29:33.002Z,10.10
2023-01-13T10:32:02.049Z,10.10
2023-01-13T10:34:31.110Z,10.20
2023-01-13T10:37:02.921Z,10.30
2023-01-13T10:39:40.709Z,10.40
2023-01-13T10:42:14.782Z,10.50
2023-01-13T10:44:52.836Z,10.50
2023-01-13T10:47:24.974Z,10.60
2023-01-13T10:50:02.606Z,10.60
2023-01-13T10:52:33.058Z,10.60
2023-01-13T10:55:02.284Z,10.60
2023-01-13T10:57:36.637Z,10.60
2023-01-13T11:00:26.489Z,10.60
2023-01-13T11:03:17.364Z,10.60
2023-01-13T11:05:54.766Z,10.60
2023-01-13T11:08:25.650Z,10.60
2023-01-13T11:10:55.818Z,10.50
2023-01-13T11:13:31.063Z,10.60
2023-01-13T11:16:06.418Z,10.60
2023-01-13T11:18:51.786Z,10.80
2023-01-13T11:21:25.720Z,10.80
2023-01-13T11:24:05.437Z,10.90
2023-01-13T11:26:42.332Z,10.90
2023-01-13T11:29:18.129Z,10.90
2023-01-13T11:31:52.483Z,10.90
2023-01-13T11:34:29.327Z,10.90
2023-01-13T11:37:01.426Z,10.90
2023-01-13T11:39:42.856Z,10.90
2023-01-13T11:42:22.197Z,11.00
2023-01-13T11:44:59.596Z,11.00
2023-01-13T11:47:29.689Z,11.00
2023-01-13T11:49:58.316Z,11.10
2023-01-13T11:52:48.882Z,11.10
2023-01-13T11:55:36.238Z,11.10
2023-01-13T11:58:49.495Z,11.10
2023-01-13T12:01:28.588Z,11.10
2023-01-13T12:04:11.300Z,11.10
2023-01-13T12:06:43.477Z,11.00
2023-01-13T12:09:31.403Z,11.00
2023-01-13T12:12:25.035Z,10.80
2023-01-13T12:15:08.849Z,10.60
2023-01-13T12:17:48.308Z,10.50
2023-01-13T12:20:26.600Z,10.40
2023-01-13T12:22:59.772Z,10.40
2023-01-13T12:25:34.446Z,10.30
2023-01-13T12:28:07.629Z,10.30
2023-01-13T12:30:41.683Z,10.30
2023-01-13T12:33:23.132Z,10.30
2023-01-13T12:36:00.339Z,10.40
2023-01-13T12:38:37.315Z,10.40
2023-01-13T12:41:16.595Z,10.40
2023-01-13T12:44:06.641Z,10.40
2023-01-13T12:46:57.035Z,10.50
2023-01-13T12:49:28.154Z,10.60
2023-01-13T12:52:26.269Z,10.60
2023-01-13T12:55:19.368Z,10.70
2023-01-13T12:58:00.598Z,10.70
2023-01-13T13:00:38.042Z,10.70
2023-01-13T13:03:30.133Z,10.70
2023-01-13T13:06:03.128Z,10.70
2023-01-13T13:08:48.075Z,10.70
2023-01-13T13:11:54.137Z,10.80
2023-01-13T13:15:03.229Z,10.80
2023-01-13T13:17:44.484Z,10.80
2023-01-13T13:20:53.840Z,10.70
2023-01-13T13:23:50.522Z,10.70
2023-01-13T13:26:30.843Z,10.60
2023-01-13T13:29:35.942Z,10.60
2023-01-13T13:32:26.455Z,10.60
2023-01-13T13:35:08.669Z,10.60
2023-01-13T13:38:10.032Z,10.50
2023-01-13T13:41:00.113Z,10.50
2023-01-13T13:43:50.597Z,10.50
2023-01-13T13:46:46.556Z,10.50
2023-01-13T13:49:16.467Z,10.50
2023-01-13T13:51:50.019Z,10.50
2023-01-13T13:54:21.930Z,10.50
2023-01-13T13:56:51.903Z,10.50
2023-01-13T13:59:25.269Z,10.50
2023-01-13T14:02:01.596Z,10.50
2023-01-13T14:04:33.350Z,10.50
2023-01-13T14:07:04.447Z,10.50
2023-01-13T14:09:44.881Z,10.50
2023-01-13T14:12:20.019Z,10.50
2023-01-13T14:14:51.008Z,10.50
2023-01-13T14:17:23.252Z,10.50
2023-01-13T14:19:58.955Z,10.50
2023-01-13T14:22:27.613Z,10.50
2023-01-13T14:24:57.846Z,10.50
2023-01-13T14:27:28.447Z,10.40
2023-01-13T14:30:01.088Z,10.40
2023-01-13T14:32:34.008Z,10.40
2023-01-13T14:35:02.701Z,10.30
2023-01-13T14:37:36.230Z,10.30
2023-01-13T14:40:05.829Z,10.20
2023-01-13T14:42:35.418Z,10.10
2023-01-13T14:45:20.713Z,10.00
2023-01-13T14:47:53.621Z,9.90
2023-01-13T14:50:31.329Z,9.80
2023-01-13T14:53:00.779Z,9.60
2023-01-13T14:55:31.234Z,9.60
2023-01-13T14:58:24.025Z,9.50
2023-01-13T15:01:16.222Z,9.50
2023-01-13T15:03:44.790Z,9.30
2023-01-13T15:06:26.852Z,9.30
2023-01-13T15:08:55.457Z,9.30
2023-01-13T15:11:27.753Z,9.30
2023-01-13T15:14:01.195Z,9.20
2023-01-13T15:16:33.353Z,9.20
2023-01-13T15:19:03.588Z,9.10
2023-01-13T15:21:32.199Z,9.10
2023-01-13T15:24:01.085Z,9.10
2023-01-13T15:26:31.059Z,9.20
2023-01-13T15:29:00.716Z,9.20
2023-01-13T15:31:30.908Z,9.20
2023-01-13T15:34:00.771Z,9.10
2023-01-13T15:36:32.265Z,9.10
2023-01-13T15:39:01.961Z,9.10
2023-01-13T15:41:48.235Z,9.10
2023-01-13T15:44:35.499Z,9.10
2023-01-13T15:47:08.451Z,9.00
2023-01-13T15:49:40.151Z,9.00
2023-01-13T15:52:19.680Z,9.00
2023-01-13T15:54:48.496Z,9.00
2023-01-13T15:57:23.282Z,9.00
2023-01-13T15:59:54.057Z,9.00
2023-01-13T16:05:18.960Z,9.00
2023-01-13T16:07:48.002Z,9.00
2023-01-13T16:10:18.681Z,9.80
2023-01-13T16:12:47.391Z,9.50
2023-01-13T16:15:17.135Z,9.20
2023-01-13T16:17:47.357Z,9.10
2023-01-13T16:20:18.514Z,9.60
2023-01-13T16:22:47.446Z,9.20
2023-01-13T16:25:18.625Z,9.20
2023-01-13T16:27:47.718Z,9.20
2023-01-13T16:30:25.633Z,9.30
2023-01-13T16:32:55.099Z,9.20
2023-01-13T16:35:27.194Z,9.60
2023-01-13T16:37:58.488Z,9.40
2023-01-13T16:40:31.104Z,9.10
2023-01-13T16:43:00.784Z,9.60
2023-01-13T16:45:29.909Z,8.90
2023-01-13T16:47:58.810Z,8.80
2023-01-13T16:50:35.991Z,9.40
2023-01-13T16:53:08.402Z,8.70
2023-01-13T16:55:41.300Z,8.60
2023-01-13T16:58:17.535Z,8.60
2023-01-13T17:00:47.807Z,8.60
2023-01-13T17:03:17.345Z,8.60
2023-01-13T17:05:48.322Z,8.60
2023-01-13T17:08:19.196Z,9.10
2023-01-13T17:10:48.895Z,8.50
2023-01-13T17:13:19.155Z,9.10
2023-01-13T17:15:47.871Z,8.50
2023-01-13T17:18:16.667Z,8.50
2023-01-13T17:20:45.456Z,9.10
2023-01-13T17:23:15.760Z,8.70
2023-01-13T17:25:44.525Z,8.50
2023-01-13T17:28:13.795Z,8.60
2023-01-13T17:30:45.009Z,8.60
2023-01-13T17:33:13.846Z,8.60
2023-01-13T17:35:42.851Z,8.50
2023-01-13T17:38:11.586Z,8.50
2023-01-13T17:40:41.610Z,9.10
2023-01-13T17:43:10.366Z,8.90
2023-01-13T17:45:42.118Z,8.60
2023-01-13T17:48:10.819Z,8.70
2023-01-13T17:50:39.639Z,8.70
2023-01-13T17:53:08.419Z,8.70
2023-01-13T17:55:37.311Z,9.30
2023-01-13T17:58:07.715Z,8.70
2023-01-13T18:00:36.561Z,8.60
2023-01-13T18:03:05.560Z,8.60
2023-01-13T18:05:35.469Z,8.90
2023-01-13T18:08:04.436Z,9.00
2023-01-13T18:10:34.534Z,8.50
2023-01-13T18:13:03.746Z,8.50
2023-01-13T18:15:33.928Z,8.50
2023-01-13T18:18:02.850Z,9.10
2023-01-13T18:20:49.168Z,8.50
2023-01-13T18:23:37.513Z,8.50
2023-01-13T18:26:36.813Z,8.90
2023-01-13T18:29:05.805Z,8.50
2023-01-13T18:31:35.910Z,8.50
2023-01-13T18:34:04.753Z,8.60
2023-01-13T18:36:33.826Z,8.60
2023-01-13T18:39:03.546Z,8.90
2023-01-13T18:41:50.112Z,8.90
2023-01-13T18:44:19.058Z,8.80
2023-01-13T18:46:49.450Z,8.60
2023-01-13T18:49:18.567Z,8.70
2023-01-13T18:51:47.292Z,8.70
2023-01-13T18:54:16.096Z,8.80
2023-01-13T18:56:45.736Z,8.80
2023-01-13T18:59:14.670Z,9.60
2023-01-13T19:01:44.621Z,9.10
2023-01-13T19:04:17.062Z,8.80
2023-01-13T19:06:51.474Z,8.80
2023-01-13T19:09:24.728Z,8.80
2023-01-13T19:11:54.934Z,9.00
2023-01-13T19:14:37.710Z,8.80
2023-01-13T19:17:09.674Z,9.00
2023-01-13T19:19:42.348Z,9.20
2023-01-13T19:22:13.163Z,8.70
2023-01-13T19:24:42.584Z,9.30
2023-01-13T19:27:12.051Z,8.80
2023-01-13T19:29:44.542Z,8.80
2023-01-13T19:32:22.428Z,8.70
2023-01-13T19:34:54.949Z,9.90
2023-01-13T19:37:23.928Z,9.40
2023-01-13T19:39:52.591Z,9.50
2023-01-13T19:42:38.613Z,9.40
2023-01-13T19:45:25.953Z,8.80
2023-01-13T19:47:55.059Z,8.80
2023-01-13T19:50:25.489Z,9.40
2023-01-13T19:52:54.513Z,8.80
2023-01-13T19:55:23.746Z,9.60
2023-01-13T19:57:52.515Z,9.40
2023-01-13T20:00:21.958Z,8.70
2023-01-13T20:02:53.142Z,8.70
2023-01-13T20:05:26.154Z,8.70
2023-01-13T20:07:55.233Z,8.60
2023-01-13T20:10:25.093Z,8.70
2023-01-13T20:12:53.816Z,8.70
2023-01-13T20:15:22.552Z,8.70
2023-01-13T20:17:51.563Z,8.70
2023-01-13T20:20:20.612Z,9.10
2023-01-13T20:22:50.780Z,8.70
2023-01-13T20:25:19.863Z,9.10
2023-01-13T20:27:49.713Z,8.70
2023-01-13T20:30:18.586Z,9.00
2023-01-13T20:32:47.409Z,8.70
2023-01-13T20:35:17.159Z,9.20
2023-01-13T20:37:46.152Z,8.70
2023-01-13T20:40:18.405Z,8.60
2023-01-13T20:42:47.263Z,8.80
2023-01-13T20:45:20.829Z,8.60
2023-01-13T20:47:49.904Z,8.60
2023-01-13T20:50:19.078Z,9.30
2023-01-13T20:52:48.781Z,8.50
2023-01-13T20:55:19.398Z,8.90
2023-01-13T20:57:50.271Z,8.50
2023-01-13T21:00:20.315Z,8.60
2023-01-13T21:02:49.903Z,8.60
2023-01-13T21:05:18.815Z,8.70
2023-01-13T21:07:47.551Z,9.00
2023-01-13T21:10:18.470Z,9.10
2023-01-13T21:13:04.429Z,8.60
2023-01-13T21:15:33.165Z,8.60
2023-01-13T21:18:19.225Z,9.40
2023-01-13T21:20:48.051Z,9.10
2023-01-13T21:23:16.891Z,9.10
2023-01-13T21:25:47.177Z,8.80
2023-01-13T21:28:17.404Z,8.60
2023-01-13T21:30:47.259Z,8.20
2023-01-13T21:33:16.099Z,8.70
2023-01-13T21:35:44.885Z,8.70
2023-01-13T21:38:13.843Z,9.40
2023-01-13T21:40:42.645Z,8.80
2023-01-13T21:43:31.924Z,8.80
2023-01-13T21:46:32.408Z,9.10
2023-01-13T21:49:01.290Z,9.50
2023-01-13T21:51:30.293Z,8.80
2023-01-13T21:53:59.406Z,8.80
2023-01-13T21:56:28.722Z,8.80
2023-01-13T21:58:59.267Z,8.80
2023-01-13T22:01:28.073Z,9.30
2023-01-13T22:04:15.152Z,9.00
2023-01-13T22:06:46.358Z,9.40
2023-01-13T22:09:15.263Z,9.40
2023-01-13T22:11:44.087Z,9.30
2023-01-13T22:14:14.596Z,9.00
2023-01-13T22:16:49.439Z,8.90
2023-01-13T22:19:19.690Z,9.50
2023-01-13T22:21:48.496Z,8.90
2023-01-13T22:24:17.509Z,8.90
2023-01-13T22:26:46.231Z,8.80
2023-01-13T22:29:16.777Z,9.40
2023-01-13T22:31:45.660Z,8.80
2023-01-13T22:34:14.806Z,8.80
2023-01-13T22:36:43.729Z,8.80
2023-01-13T22:39:12.907Z,8.90
2023-01-13T22:41:41.832Z,8.80
2023-01-13T22:44:10.714Z,8.80
2023-01-13T22:46:41.175Z,8.70
2023-01-13T22:49:10.177Z,8.90
2023-01-13T22:51:39.170Z,9.40
2023-01-13T22:54:09.390Z,9.10
2023-01-13T22:56:38.980Z,9.00
2023-01-13T22:59:09.921Z,8.70
2023-01-13T23:01:41.267Z,9.20
2023-01-13T23:04:14.176Z,8.80
2023-01-13T23:06:43.137Z,8.80
2023-01-13T23:09:11.874Z,8.70
2023-01-13T23:11:41.621Z,8.40
2023-01-13T23:14:12.990Z,8.80
2023-01-13T23:16:43.500Z,8.80
2023-01-13T23:19:12.457Z,8.20
2023-01-13T23:21:41.343Z,8.10
2023-01-13T23:24:11.735Z,8.50
2023-01-13T23:26:41.330Z,8.50
2023-01-13T23:29:13.719Z,8.70
2023-01-13T23:31:44.432Z,8.10
2023-01-13T23:34:13.301Z,8.10
2023-01-13T23:36:43.481Z,8.00
2023-01-13T23:39:12.657Z,8.40
2023-01-13T23:41:44.881Z,8.00
2023-01-13T23:44:14.092Z,8.00
2023-01-13T23:46:44.439Z,7.90
2023-01-13T23:49:13.306Z,7.90
2023-01-13T23:51:42.391Z,8.60
2023-01-13T23:54:11.217Z,7.90
2023-01-13T23:56:40.310Z,8.40
2023-01-13T23:59:09.677Z,7.70
